createdAt,value
2023-04-14T00:00:43.566Z,74.57
2023-04-14T00:03:26.471Z,84.70
2023-04-14T00:06:14.526Z,66.17
2023-04-14T00:09:09.977Z,82.33
2023-04-14T00:15:49.804Z,210.20
2023-04-14T00:18:48.472Z,56.77
2023-04-14T00:21:52.292Z,318.70
2023-04-14T00:24:51.896Z,500.87
2023-04-14T00:28:03.670Z,1333.33
2023-04-14T00:31:27.403Z,596.87
2023-04-14T00:34:13.463Z,385.00
2023-04-14T00:37:26.454Z,504.83
2023-04-14T00:40:28.607Z,137.40
2023-04-14T00:43:27.863Z,58.63
2023-04-14T00:46:49.434Z,92.53
2023-04-14T00:49:50.998Z,140.17
2023-04-14T00:55:36.204Z,883.27
2023-04-14T00:58:33.245Z,39.97
2023-04-14T01:01:45.092Z,361.77
2023-04-14T01:04:40.490Z,193.27
2023-04-14T01:07:29.234Z,1895.73
2023-04-14T01:10:47.733Z,161.33
2023-04-14T01:13:51.629Z,432.40
2023-04-14T01:17:06.111Z,154.83
2023-04-14T01:20:42.334Z,101.60
2023-04-14T01:23:50.244Z,635.37
2023-04-14T01:26:43.231Z,1950.43
2023-04-14T01:33:23.408Z,38.30
2023-04-14T01:36:35.840Z,166.23
2023-04-14T01:40:05.862Z,86.27
2023-04-14T01:43:11.168Z,99.40
2023-04-14T01:49:19.027Z,325.37
2023-04-14T01:52:20.023Z,126.67
2023-04-14T01:55:16.677Z,154.20
2023-04-14T01:58:15.665Z,104.53
2023-04-14T02:01:25.318Z,64.00
2023-04-14T02:04:26.366Z,128.33
2023-04-14T02:07:49.317Z,36.20
2023-04-14T02:11:02.579Z,104.53
2023-04-14T02:14:10.327Z,1323.97
2023-04-14T02:16:48.049Z,220.87
2023-04-14T02:19:38.128Z,65.67
2023-04-14T02:22:28.060Z,54.47
2023-04-14T02:25:41.212Z,42.00
2023-04-14T02:28:33.007Z,87.63
2023-04-14T02:31:42.529Z,50.73
2023-04-14T02:34:43.341Z,172.20
2023-04-14T02:37:32.763Z,43.43
2023-04-14T02:40:15.522Z,45.53
2023-04-14T02:43:15.704Z,69.93
2023-04-14T02:46:04.321Z,304.30
2023-04-14T02:49:52.052Z,195.00
2023-04-14T02:59:29.106Z,145.93
2023-04-14T03:02:35.700Z,496.77
2023-04-14T03:05:28.422Z,496.87
2023-04-14T03:08:17.902Z,732.17
2023-04-14T03:11:44.950Z,391.53
2023-04-14T03:14:37.724Z,406.47
2023-04-14T03:17:28.056Z,186.50
2023-04-14T03:20:35.006Z,105.57
2023-04-14T03:23:12.468Z,99.33
2023-04-14T03:26:25.180Z,48.30
2023-04-14T03:29:08.103Z,70.60
2023-04-14T03:35:09.556Z,84.90
2023-04-14T03:38:11.081Z,123.17
2023-04-14T03:40:48.094Z,80.80
2023-04-14T03:43:25.226Z,89.90
2023-04-14T03:46:15.457Z,68.57
2023-04-14T03:49:10.778Z,90.70
2023-04-14T03:52:03.742Z,160.13
2023-04-14T03:55:03.402Z,199.00
2023-04-14T03:57:51.474Z,423.27
2023-04-14T04:00:44.315Z,158.73
2023-04-14T04:06:23.851Z,304.47
2023-04-14T04:09:08.957Z,157.37
2023-04-14T04:12:03.484Z,89.80
2023-04-14T04:15:00.754Z,69.43
2023-04-14T04:17:42.886Z,35.43
2023-04-14T04:20:56.160Z,31.67
2023-04-14T04:26:38.231Z,48.03
2023-04-14T04:29:30.352Z,76.70
2023-04-14T04:32:15.414Z,62.60
2023-04-14T04:35:01.959Z,68.43
2023-04-14T04:37:54.009Z,46.77
2023-04-14T04:40:25.152Z,48.17
2023-04-14T04:42:53.552Z,37.73
2023-04-14T04:46:04.635Z,79.13
2023-04-14T04:48:41.891Z,115.70
2023-04-14T04:51:26.723Z,64.07
2023-04-14T04:56:40.592Z,99.97
2023-04-14T05:02:06.215Z,75.40
2023-04-14T05:04:52.850Z,109.90
2023-04-14T05:07:29.375Z,273.07
2023-04-14T05:10:01.698Z,126.27
2023-04-14T05:12:50.732Z,40.47
2023-04-14T05:18:17.304Z,49.87
2023-04-14T05:20:45.389Z,172.60
2023-04-14T05:23:13.506Z,111.23
2023-04-14T05:25:41.520Z,91.57
2023-04-14T05:28:09.480Z,394.10
2023-04-14T05:30:37.459Z,349.73
2023-04-14T05:33:05.672Z,699.23
2023-04-14T05:35:35.089Z,137.80
2023-04-14T05:38:03.042Z,63.63
2023-04-14T05:40:33.388Z,242.97
2023-04-14T05:43:01.628Z,359.63
2023-04-14T05:45:29.692Z,80.67
2023-04-14T05:47:57.765Z,155.33
2023-04-14T05:50:26.178Z,74.40
2023-04-14T05:52:55.699Z,69.37
2023-04-14T05:55:23.853Z,269.67
2023-04-14T05:57:52.535Z,200.67
2023-04-14T06:00:23.190Z,599.47
2023-04-14T06:02:51.618Z,677.67
2023-04-14T06:05:20.208Z,1023.13
2023-04-14T06:07:48.272Z,1743.10
2023-04-14T06:10:17.724Z,1999.90
2023-04-14T06:12:45.742Z,1866.13
2023-04-14T06:15:13.767Z,1875.70
2023-04-14T06:17:41.858Z,1542.40
2023-04-14T06:20:11.204Z,1999.90
2023-04-14T06:22:40.528Z,1999.90
2023-04-14T06:25:09.346Z,1999.90
2023-04-14T06:27:38.663Z,1999.90
2023-04-14T06:30:08.051Z,1999.90
2023-04-14T06:32:36.115Z,1999.90
2023-04-14T06:35:05.130Z,1999.90
2023-04-14T06:37:33.185Z,1999.90
2023-04-14T06:40:01.473Z,1999.90
2023-04-14T06:42:29.412Z,1999.90
2023-04-14T06:44:58.716Z,1999.90
2023-04-14T06:47:26.677Z,1999.90
2023-04-14T06:49:54.681Z,1999.90
2023-04-14T06:52:22.630Z,1999.90
2023-04-14T06:54:50.956Z,1999.90
2023-04-14T06:57:18.923Z,1999.90
2023-04-14T06:59:46.855Z,1999.90
2023-04-14T07:02:16.289Z,1999.90
2023-04-14T07:04:44.384Z,1999.90
2023-04-14T07:07:14.420Z,1999.90
2023-04-14T07:09:43.629Z,1999.90
2023-04-14T07:12:14.920Z,1999.90
2023-04-14T07:14:42.890Z,1999.90
2023-04-14T07:17:10.884Z,1999.90
2023-04-14T07:19:40.171Z,1999.90
2023-04-14T07:22:09.062Z,1999.90
2023-04-14T07:24:37.032Z,1999.90
2023-04-14T07:27:07.251Z,1999.90
2023-04-14T07:29:35.957Z,1999.90
2023-04-14T07:32:03.960Z,1999.90
2023-04-14T07:34:34.159Z,1999.90
2023-04-14T07:37:03.665Z,1999.90
2023-04-14T07:39:31.654Z,1999.90
2023-04-14T07:42:01.611Z,1999.90
2023-04-14T07:44:29.625Z,1999.90
2023-04-14T07:46:57.610Z,1999.90
2023-04-14T07:49:25.769Z,1999.90
2023-04-14T07:51:53.762Z,1999.90
2023-04-14T07:54:23.226Z,1999.90
2023-04-14T07:56:51.221Z,1999.90
2023-04-14T07:59:19.873Z,1999.90
2023-04-14T08:01:50.615Z,1999.90
2023-04-14T08:04:19.783Z,1999.90
2023-04-14T08:06:48.825Z,1999.90
2023-04-14T08:09:17.293Z,1999.90
2023-04-14T08:11:46.657Z,1999.90
2023-04-14T08:14:14.621Z,1999.90
2023-04-14T08:16:42.724Z,1999.90
2023-04-14T08:19:10.918Z,1999.90
2023-04-14T08:21:38.885Z,1999.90
2023-04-14T08:24:07.336Z,1999.90
2023-04-14T08:26:35.532Z,1999.90
2023-04-14T08:29:04.884Z,1999.90
2023-04-14T08:31:33.205Z,1999.90
2023-04-14T08:34:01.253Z,1999.90
2023-04-14T08:36:29.374Z,1999.90
2023-04-14T08:38:59.509Z,1999.90
2023-04-14T08:41:29.407Z,1999.90
2023-04-14T08:43:57.392Z,1999.90
2023-04-14T08:46:28.633Z,1999.90
2023-04-14T08:49:03.703Z,1999.90
2023-04-14T08:51:35.439Z,1999.90
2023-04-14T08:54:06.473Z,1999.90
2023-04-14T08:56:38.140Z,1999.90
2023-04-14T08:59:08.155Z,1999.90
2023-04-14T09:01:39.333Z,1999.90
2023-04-14T09:04:08.969Z,1999.90
2023-04-14T09:06:37.514Z,1999.90
2023-04-14T09:09:07.539Z,1999.90
2023-04-14T09:11:36.170Z,1999.90
2023-04-14T09:14:05.008Z,1999.90
2023-04-14T09:16:34.010Z,1999.90
2023-04-14T09:19:07.562Z,1999.90
2023-04-14T09:21:52.070Z,1999.90
2023-04-14T09:24:30.295Z,1999.90
2023-04-14T09:27:01.735Z,1999.90
2023-04-14T09:29:29.972Z,1999.90
2023-04-14T09:31:58.309Z,1999.90
2023-04-14T09:34:28.071Z,1999.90
2023-04-14T09:37:04.672Z,1999.90
2023-04-14T09:39:33.159Z,1999.90
2023-04-14T09:42:01.950Z,1999.90
2023-04-14T09:44:30.252Z,1999.90
2023-04-14T09:47:02.659Z,1999.90
2023-04-14T09:49:33.122Z,1999.90
2023-04-14T09:52:05.614Z,1999.90
2023-04-14T09:54:33.631Z,1999.90
2023-04-14T09:57:02.394Z,1999.90
2023-04-14T09:59:34.956Z,1999.90
2023-04-14T10:02:06.751Z,1999.90
2023-04-14T10:04:37.582Z,1999.90
2023-04-14T10:07:08.477Z,1999.90
2023-04-14T10:09:38.697Z,1999.90
2023-04-14T10:12:12.197Z,1999.90
2023-04-14T10:14:41.056Z,1999.90
2023-04-14T10:17:09.276Z,1999.90
2023-04-14T10:19:39.110Z,1999.90
2023-04-14T10:22:07.528Z,1999.90
2023-04-14T10:24:36.037Z,1999.90
2023-04-14T10:27:04.929Z,1999.90
2023-04-14T10:29:33.189Z,1999.90
2023-04-14T10:32:06.467Z,1999.90
2023-04-14T10:34:35.209Z,1999.90
2023-04-14T10:37:17.303Z,1999.90
2023-04-14T10:39:55.661Z,1999.90
2023-04-14T10:42:24.273Z,1999.90
2023-04-14T10:45:07.058Z,1999.90
2023-04-14T10:47:36.196Z,1999.90
2023-04-14T10:50:14.961Z,1999.90
2023-04-14T10:52:54.188Z,1999.90
2023-04-14T10:55:23.787Z,1999.90
2023-04-14T10:57:52.149Z,1999.90
2023-04-14T11:00:25.660Z,1999.90
2023-04-14T11:02:59.246Z,1999.90
2023-04-14T11:05:27.413Z,1999.90
2023-04-14T11:08:01.594Z,1863.57
2023-04-14T11:10:33.149Z,1999.90
2023-04-14T11:13:07.361Z,1999.90
2023-04-14T11:15:46.085Z,1999.90
2023-04-14T11:18:16.220Z,1999.90
2023-04-14T11:20:44.939Z,1999.90
2023-04-14T11:23:16.502Z,1999.90
2023-04-14T11:25:45.527Z,1999.90
2023-04-14T11:28:13.541Z,1999.90
2023-04-14T11:30:43.020Z,1999.90
2023-04-14T11:33:11.176Z,1999.90
2023-04-14T11:35:39.292Z,1999.90
2023-04-14T11:38:12.059Z,1999.90
2023-04-14T11:40:41.432Z,1999.90
2023-04-14T11:43:09.413Z,1999.90
2023-04-14T11:45:43.630Z,1999.90
2023-04-14T11:48:12.418Z,1999.90
2023-04-14T11:50:41.350Z,1999.90
2023-04-14T11:53:09.827Z,1999.90
2023-04-14T11:55:38.681Z,1999.90
2023-04-14T11:58:08.030Z,1999.90
2023-04-14T12:00:36.532Z,1999.90
2023-04-14T12:03:05.594Z,1999.90
2023-04-14T12:05:35.554Z,1999.90
2023-04-14T12:08:07.583Z,1999.90
2023-04-14T12:10:35.987Z,1999.90
2023-04-14T12:13:05.332Z,1999.90
2023-04-14T12:15:37.306Z,1999.90
2023-04-14T12:18:08.589Z,1999.90
2023-04-14T12:20:43.885Z,1999.90
2023-04-14T12:23:12.226Z,1999.90
2023-04-14T12:25:41.042Z,1999.90
2023-04-14T12:28:09.689Z,1999.90
2023-04-14T12:30:51.483Z,1999.90
2023-04-14T12:33:23.125Z,1999.90
2023-04-14T12:35:52.479Z,1999.90
2023-04-14T12:38:20.744Z,1999.90
2023-04-14T12:40:49.664Z,1999.90
2023-04-14T12:43:17.891Z,1999.90
2023-04-14T12:45:48.822Z,1999.90
2023-04-14T12:48:18.629Z,1999.90
2023-04-14T12:50:47.094Z,1999.90
2023-04-14T12:53:24.696Z,1999.90
2023-04-14T12:56:06.878Z,1999.90
2023-04-14T12:58:35.114Z,1999.90
2023-04-14T13:01:05.519Z,1999.90
2023-04-14T13:03:44.959Z,1999.90
2023-04-14T13:06:16.264Z,1999.90
2023-04-14T13:08:45.578Z,1999.90
2023-04-14T13:11:13.912Z,1999.90
2023-04-14T13:13:42.111Z,1999.90
2023-04-14T13:16:14.894Z,1999.90
2023-04-14T13:18:44.235Z,1999.90
2023-04-14T13:21:12.539Z,1999.90
2023-04-14T13:23:41.141Z,1999.90
2023-04-14T13:26:09.269Z,1999.90
2023-04-14T13:28:37.785Z,1999.90
2023-04-14T13:31:06.094Z,1999.90
2023-04-14T13:33:35.645Z,1999.90
2023-04-14T13:36:03.826Z,1999.90
2023-04-14T13:38:32.025Z,1999.90
2023-04-14T13:41:00.323Z,1999.90
2023-04-14T13:43:28.388Z,1999.90
2023-04-14T13:45:58.000Z,1999.90
2023-04-14T13:48:26.304Z,1999.90
2023-04-14T13:50:55.920Z,1999.90
2023-04-14T13:53:24.072Z,1999.90
2023-04-14T13:55:52.153Z,1999.90
2023-04-14T13:58:20.271Z,1999.90
2023-04-14T14:00:48.226Z,1999.90
2023-04-14T14:03:16.335Z,1999.90
2023-04-14T14:05:44.476Z,1999.90
2023-04-14T14:08:15.861Z,1999.90
2023-04-14T14:10:44.090Z,1999.90
2023-04-14T14:13:12.056Z,1999.90
2023-04-14T14:15:40.057Z,1999.90
2023-04-14T14:18:08.088Z,1999.90
2023-04-14T14:20:36.022Z,1999.90
2023-04-14T14:23:03.998Z,1999.90
2023-04-14T14:25:33.320Z,1999.90
2023-04-14T14:28:01.327Z,1999.90
2023-04-14T14:30:29.342Z,1999.90
2023-04-14T14:32:57.340Z,1999.90
2023-04-14T14:35:25.328Z,1999.90
2023-04-14T14:37:53.475Z,1999.90
2023-04-14T14:40:21.544Z,1999.90
2023-04-14T14:42:50.888Z,1999.90
2023-04-14T14:45:25.172Z,1999.90
2023-04-14T14:48:00.164Z,1999.90
2023-04-14T14:50:28.225Z,1999.90
2023-04-14T14:52:56.937Z,1999.90
2023-04-14T14:55:24.948Z,1999.90
2023-04-14T14:57:54.294Z,1999.90
2023-04-14T15:00:22.513Z,1999.90
2023-04-14T15:02:50.791Z,1999.90
2023-04-14T15:05:19.150Z,1999.90
2023-04-14T15:07:47.091Z,1999.90
2023-04-14T15:10:16.244Z,1999.90
2023-04-14T15:12:44.303Z,1999.90
2023-04-14T15:15:14.058Z,1999.90
2023-04-14T15:17:42.066Z,1999.90
2023-04-14T15:20:11.112Z,1999.90
2023-04-14T15:22:39.060Z,1999.90
2023-04-14T15:25:09.267Z,1999.90
2023-04-14T15:27:37.323Z,1999.90
2023-04-14T15:30:06.137Z,1999.90
2023-04-14T15:32:35.543Z,1999.90
2023-04-14T15:35:04.098Z,1999.90
2023-04-14T15:37:32.095Z,1999.90
2023-04-14T15:40:00.340Z,1999.90
2023-04-14T15:42:28.671Z,1999.90
2023-04-14T15:44:56.688Z,1999.90
2023-04-14T15:47:24.691Z,1999.90
2023-04-14T15:50:09.446Z,1999.90
2023-04-14T15:52:41.157Z,1999.90
2023-04-14T15:55:11.689Z,1999.90
2023-04-14T15:57:39.646Z,1999.90
2023-04-14T16:00:08.850Z,1999.90
2023-04-14T16:02:37.097Z,1999.90
2023-04-14T16:05:08.064Z,1999.90
2023-04-14T16:07:36.068Z,1999.90
2023-04-14T16:10:05.420Z,1999.90
2023-04-14T16:12:35.111Z,1999.90
2023-04-14T16:15:03.146Z,1999.90
2023-04-14T16:17:31.684Z,1999.90
2023-04-14T16:19:59.666Z,1999.90
2023-04-14T16:22:29.604Z,1999.90
2023-04-14T16:24:57.565Z,1999.90
2023-04-14T16:27:25.554Z,1999.90
2023-04-14T16:29:53.529Z,1999.90
2023-04-14T16:32:21.492Z,1999.90
2023-04-14T16:34:49.593Z,1999.90
2023-04-14T16:37:17.568Z,1999.90
2023-04-14T16:39:46.917Z,1999.90
2023-04-14T16:42:18.616Z,1999.90
2023-04-14T16:44:46.589Z,1999.90
2023-04-14T16:47:14.516Z,1999.90
2023-04-14T16:49:42.487Z,1999.90
2023-04-14T16:52:10.434Z,1999.90
2023-04-14T16:54:38.671Z,1999.90
2023-04-14T16:57:08.246Z,1999.90
2023-04-14T16:59:36.202Z,1999.90
2023-04-14T17:02:04.492Z,1999.90
2023-04-14T17:04:32.856Z,1999.90
2023-04-14T17:07:01.019Z,1999.90
2023-04-14T17:09:29.124Z,1999.90
2023-04-14T17:11:57.135Z,1999.90
2023-04-14T17:14:26.520Z,1999.90
2023-04-14T17:16:54.968Z,1999.90
2023-04-14T17:19:23.006Z,1999.90
2023-04-14T17:21:51.023Z,1999.90
2023-04-14T17:24:18.957Z,1999.90
2023-04-14T17:26:46.944Z,1999.90
2023-04-14T17:29:14.907Z,1999.90
2023-04-14T17:31:44.620Z,1999.90
2023-04-14T17:34:13.157Z,1999.90
2023-04-14T17:36:41.162Z,1999.90
2023-04-14T17:39:10.467Z,1999.90
2023-04-14T17:41:38.601Z,1999.90
2023-04-14T17:44:06.569Z,1999.90
2023-04-14T17:46:34.687Z,1999.90
2023-04-14T17:49:04.139Z,1999.90
2023-04-14T17:51:32.757Z,1999.90
2023-04-14T17:54:01.078Z,1999.90
2023-04-14T17:56:30.695Z,1999.90
2023-04-14T17:58:58.931Z,1994.90
2023-04-14T18:01:27.196Z,1999.90
2023-04-14T18:03:55.224Z,1999.90
2023-04-14T18:06:24.773Z,1761.10
2023-04-14T18:08:52.961Z,1999.90
2023-04-14T18:11:20.932Z,1999.90
2023-04-14T18:13:48.871Z,1999.90
2023-04-14T18:16:18.463Z,1999.90
2023-04-14T18:18:46.594Z,1999.90
2023-04-14T18:21:14.563Z,1999.90
2023-04-14T18:23:43.916Z,1999.90
2023-04-14T18:28:42.805Z,1999.90
2023-04-14T18:31:13.692Z,1744.57
2023-04-14T18:33:41.912Z,485.67
2023-04-14T18:36:09.878Z,1999.90
2023-04-14T18:38:37.839Z,372.37
2023-04-14T18:41:07.236Z,1675.13
2023-04-14T18:43:35.587Z,1999.90
2023-04-14T18:46:03.911Z,1606.33
2023-04-14T18:48:31.956Z,1999.90
2023-04-14T18:51:02.412Z,857.33
2023-04-14T18:53:30.420Z,642.07
2023-04-14T18:55:58.387Z,399.20
2023-04-14T18:58:29.353Z,1650.63
2023-04-14T19:00:58.351Z,1993.73
2023-04-14T19:03:27.001Z,1039.23
2023-04-14T19:05:55.728Z,702.87
2023-04-14T19:08:23.705Z,1999.90
2023-04-14T19:10:52.506Z,1216.13
2023-04-14T19:13:20.902Z,1371.00
2023-04-14T19:15:50.269Z,1001.50
2023-04-14T19:18:18.802Z,736.33
2023-04-14T19:20:47.572Z,1140.93
2023-04-14T19:23:15.640Z,538.27
2023-04-14T19:25:43.591Z,556.80
2023-04-14T19:28:16.624Z,1506.50
2023-04-14T19:30:45.940Z,750.73
2023-04-14T19:33:15.558Z,640.00
2023-04-14T19:35:44.256Z,463.30
2023-04-14T19:38:12.404Z,554.40
2023-04-14T19:40:40.498Z,220.57
2023-04-14T19:43:09.022Z,123.77
2023-04-14T19:45:37.271Z,517.37
2023-04-14T19:48:19.926Z,163.83
2023-04-14T19:50:54.578Z,324.60
2023-04-14T19:53:23.528Z,1301.03
2023-04-14T19:55:52.012Z,494.70
2023-04-14T19:58:21.321Z,451.77
2023-04-14T20:00:51.496Z,461.07
2023-04-14T20:03:20.297Z,960.10
2023-04-14T20:05:53.174Z,1007.17
2023-04-14T20:08:21.670Z,233.90
2023-04-14T20:10:51.791Z,385.73
2023-04-14T20:13:21.269Z,1805.37
2023-04-14T20:15:49.610Z,266.50
2023-04-14T20:18:19.571Z,1096.07
2023-04-14T20:20:48.765Z,600.07
2023-04-14T20:23:18.186Z,1478.13
2023-04-14T20:25:48.465Z,576.77
2023-04-14T20:28:19.413Z,350.90
2023-04-14T20:30:49.538Z,183.90
2023-04-14T20:33:18.595Z,416.13
2023-04-14T20:35:46.618Z,1999.90
2023-04-14T20:38:15.573Z,842.10
2023-04-14T20:40:45.200Z,302.97
2023-04-14T20:43:13.258Z,210.63
2023-04-14T20:45:41.535Z,130.10
2023-04-14T20:48:09.590Z,84.60
2023-04-14T20:50:37.706Z,69.17
2023-04-14T20:53:05.714Z,348.73
2023-04-14T20:55:33.679Z,62.73
2023-04-14T20:58:03.061Z,333.17
2023-04-14T21:00:33.113Z,89.90
2023-04-14T21:03:03.616Z,115.70
2023-04-14T21:05:31.810Z,238.23
2023-04-14T21:08:00.146Z,63.10
2023-04-14T21:10:28.422Z,572.83
2023-04-14T21:15:24.854Z,68.30
2023-04-14T21:15:53.282Z,56.27
2023-04-14T21:18:21.774Z,78.10
2023-04-14T21:20:49.752Z,50.17
2023-04-14T21:23:18.909Z,47.37
2023-04-14T21:25:46.919Z,78.50
2023-04-14T21:28:16.336Z,66.50
2023-04-14T21:30:44.486Z,41.97
2023-04-14T21:33:13.965Z,98.27
2023-04-14T21:35:42.288Z,82.07
2023-04-14T21:38:10.446Z,86.80
2023-04-14T21:40:38.847Z,84.40
2023-04-14T21:43:07.240Z,40.70
2023-04-14T21:45:35.266Z,148.37
2023-04-14T21:48:03.489Z,48.90
2023-04-14T21:50:34.588Z,146.27
2023-04-14T21:53:02.757Z,277.10
2023-04-14T21:55:30.977Z,155.37
2023-04-14T21:57:59.454Z,53.57
2023-04-14T22:00:27.923Z,96.33
2023-04-14T22:02:56.049Z,43.27
2023-04-14T22:05:24.426Z,109.97
2023-04-14T22:07:55.127Z,537.20
2023-04-14T22:10:23.528Z,35.80
2023-04-14T22:12:52.077Z,180.77
2023-04-14T22:15:20.189Z,26.40
2023-04-14T22:17:48.183Z,56.73
2023-04-14T22:20:16.552Z,71.70
2023-04-14T22:22:44.510Z,44.40
2023-04-14T22:25:14.306Z,201.00
2023-04-14T22:27:42.282Z,522.93
2023-04-14T22:30:11.665Z,1999.90
2023-04-14T22:32:39.706Z,677.13
2023-04-14T22:35:08.380Z,290.30
2023-04-14T22:37:36.365Z,270.87
2023-04-14T22:40:04.518Z,418.13
2023-04-14T22:42:33.868Z,1999.90
2023-04-14T22:45:01.813Z,872.43
2023-04-14T22:47:29.844Z,1431.40
2023-04-14T22:49:57.803Z,241.33
2023-04-14T22:52:27.944Z,391.80
2023-04-14T22:54:55.980Z,538.17
2023-04-14T22:57:24.014Z,372.67
2023-04-14T22:59:53.318Z,193.93
2023-04-14T23:02:21.526Z,1999.90
2023-04-14T23:04:49.631Z,115.93
2023-04-14T23:07:17.670Z,165.40
2023-04-14T23:09:45.644Z,1999.90
2023-04-14T23:12:13.618Z,192.33
2023-04-14T23:14:41.573Z,78.43
2023-04-14T23:17:11.088Z,644.37
2023-04-14T23:19:39.282Z,1621.60
2023-04-14T23:22:07.480Z,1064.93
2023-04-14T23:24:35.884Z,111.50
2023-04-14T23:27:04.106Z,1835.57
2023-04-14T23:29:32.044Z,843.67
2023-04-14T23:32:00.024Z,1154.63
2023-04-14T23:34:30.184Z,212.33
2023-04-14T23:36:58.164Z,155.37
2023-04-14T23:39:26.147Z,530.90
2023-04-14T23:41:54.425Z,88.87
2023-04-14T23:44:22.512Z,415.23
2023-04-14T23:46:51.309Z,334.57
2023-04-14T23:49:34.198Z,210.93
2023-04-14T23:52:04.644Z,73.17
2023-04-14T23:54:32.750Z,503.43
2023-04-14T23:57:00.711Z,1105.80
2023-04-14T23:59:28.845Z,320.50
